Skip Navigation Links Skip Navigation Links

Current Weather

Manassas Regional/Harry P. Davis Field, Manassas, Va.

For information only: do not use for flight planning or navigation.
Latest weather
Observation time Wednesday, December 2, 2020 9:56 PM EST
Local time Wednesday, December 2, 2020 10:21 PM EST
Flight conditions Visual Meteorological Conditions
Winds
Wind direction South (170°)
Wind speed 3 mph
Visibility 10 mi.
Sky condition
Ceiling unlimited
Sky clear
Temperature 30°F
Dewpoint 25°F
Altimeter 30.25 in.Hg
Pressure change last 3 hours-0.01 in.Hg
Pressure rising more quickly
Derived measurements
Relative humidity 81%
Wind chill 26°F
Density altitude -2088 ft.
Sea-level pressure 30.27 in.Hg
Remarks
Automated weather observing station with precipitation discriminator.
Freezing rain sensor not operating.
METAR KHEF 030256Z 17003KT 10SM CLR M01/M04 A3025 RMK AO2 SLP250 T10111039 53005 FZRANO

Settings

Location code

InnerDrive.Weather 4.0.6770.0 Release CLR 4.0.30319.42000
Copyright ©2018 Inner Drive Technology. All rights reserved. Portions Copyright ©1986-2018 David Braverman.

Find weather

Site navigation


Skip Navigation Links

Place info

Page info

PayPal - The safer, easier way to pay online!

Return home.

Copyright ©2020 Inner Drive Technology. Purveyors of fine, hand-crafted computer software. Page printed 2020-12-03T03:21:39 UTC.